sensor_id;sensor_type;location;lat;lon;timestamp;P1;durP1;ratioP1;P2;durP2;ratioP2
42432;SDS011;28071;48.232;20.668;2023-06-26T00:00:06;1.25;;;0.50;;
42432;SDS011;28071;48.232;20.668;2023-06-26T00:05:07;1.30;;;0.70;;
42432;SDS011;28071;48.232;20.668;2023-06-26T00:10:08;0.65;;;0.65;;
42432;SDS011;28071;48.232;20.668;2023-06-26T00:15:09;0.73;;;0.38;;
42432;SDS011;28071;48.232;20.668;2023-06-26T00:20:09;0.68;;;0.65;;
42432;SDS011;28071;48.232;20.668;2023-06-26T00:25:10;0.40;;;0.40;;
42432;SDS011;28071;48.232;20.668;2023-06-26T00:30:10;1.00;;;0.68;;
42432;SDS011;28071;48.232;20.668;2023-06-26T00:35:11;0.60;;;0.50;;
42432;SDS011;28071;48.232;20.668;2023-06-26T00:40:12;1.75;;;0.60;;
42432;SDS011;28071;48.232;20.668;2023-06-26T00:45:13;1.27;;;0.75;;
42432;SDS011;28071;48.232;20.668;2023-06-26T00:50:13;0.85;;;0.60;;
42432;SDS011;28071;48.232;20.668;2023-06-26T00:55:16;1.98;;;0.85;;
42432;SDS011;28071;48.232;20.668;2023-06-26T01:00:16;1.70;;;1.10;;
42432;SDS011;28071;48.232;20.668;2023-06-26T01:05:18;0.95;;;0.65;;
42432;SDS011;28071;48.232;20.668;2023-06-26T01:10:20;1.15;;;0.82;;
42432;SDS011;28071;48.232;20.668;2023-06-26T01:15:21;0.95;;;0.85;;
42432;SDS011;28071;48.232;20.668;2023-06-26T01:20:22;1.15;;;1.05;;
42432;SDS011;28071;48.232;20.668;2023-06-26T01:30:51;0.75;;;0.75;;
42432;SDS011;28071;48.232;20.668;2023-06-26T01:35:52;1.00;;;1.00;;
42432;SDS011;28071;48.232;20.668;2023-06-26T01:40:53;3.25;;;1.50;;
42432;SDS011;28071;48.232;20.668;2023-06-26T01:45:55;0.35;;;0.35;;
42432;SDS011;28071;48.232;20.668;2023-06-26T01:51:00;1.10;;;0.40;;
42432;SDS011;28071;48.232;20.668;2023-06-26T01:56:08;1.33;;;0.60;;
42432;SDS011;28071;48.232;20.668;2023-06-26T02:01:13;0.98;;;0.52;;
42432;SDS011;28071;48.232;20.668;2023-06-26T02:06:14;0.40;;;0.40;;
42432;SDS011;28071;48.232;20.668;2023-06-26T02:11:15;0.50;;;0.50;;
42432;SDS011;28071;48.232;20.668;2023-06-26T02:16:15;1.20;;;1.05;;
42432;SDS011;28071;48.232;20.668;2023-06-26T02:21:15;2.10;;;1.33;;
42432;SDS011;28071;48.232;20.668;2023-06-26T02:26:16;1.20;;;1.02;;
42432;SDS011;28071;48.232;20.668;2023-06-26T02:31:16;5.55;;;0.77;;
42432;SDS011;28071;48.232;20.668;2023-06-26T02:36:17;0.70;;;0.70;;
42432;SDS011;28071;48.232;20.668;2023-06-26T02:41:17;1.40;;;1.00;;
42432;SDS011;28071;48.232;20.668;2023-06-26T02:46:18;3.42;;;1.25;;
42432;SDS011;28071;48.232;20.668;2023-06-26T02:51:18;0.47;;;0.47;;
42432;SDS011;28071;48.232;20.668;2023-06-26T02:56:18;0.80;;;0.60;;
42432;SDS011;28071;48.232;20.668;2023-06-26T03:01:19;0.73;;;0.55;;
42432;SDS011;28071;48.232;20.668;2023-06-26T03:06:20;0.98;;;0.80;;
42432;SDS011;28071;48.232;20.668;2023-06-26T03:11:21;1.05;;;0.85;;
42432;SDS011;28071;48.232;20.668;2023-06-26T03:16:21;1.05;;;0.70;;
42432;SDS011;28071;48.232;20.668;2023-06-26T03:21:22;2.42;;;0.73;;
42432;SDS011;28071;48.232;20.668;2023-06-26T03:26:22;0.95;;;0.60;;
42432;SDS011;28071;48.232;20.668;2023-06-26T03:31:27;0.70;;;0.70;;
42432;SDS011;28071;48.232;20.668;2023-06-26T03:36:27;0.50;;;0.35;;
42432;SDS011;28071;48.232;20.668;2023-06-26T03:41:28;1.30;;;0.93;;
42432;SDS011;28071;48.232;20.668;2023-06-26T03:46:28;0.93;;;0.70;;
42432;SDS011;28071;48.232;20.668;2023-06-26T03:51:29;0.98;;;0.65;;
42432;SDS011;28071;48.232;20.668;2023-06-26T03:56:29;1.58;;;0.73;;
42432;SDS011;28071;48.232;20.668;2023-06-26T04:01:29;0.95;;;0.65;;
42432;SDS011;28071;48.232;20.668;2023-06-26T04:06:30;1.05;;;0.75;;
42432;SDS011;28071;48.232;20.668;2023-06-26T04:11:33;0.40;;;0.40;;
42432;SDS011;28071;48.232;20.668;2023-06-26T04:16:33;1.17;;;0.60;;
42432;SDS011;28071;48.232;20.668;2023-06-26T04:21:34;1.23;;;0.93;;
42432;SDS011;28071;48.232;20.668;2023-06-26T04:26:34;0.98;;;0.73;;
42432;SDS011;28071;48.232;20.668;2023-06-26T04:31:35;0.77;;;0.77;;
42432;SDS011;28071;48.232;20.668;2023-06-26T04:36:36;0.50;;;0.50;;
42432;SDS011;28071;48.232;20.668;2023-06-26T04:41:38;0.80;;;0.75;;
42432;SDS011;28071;48.232;20.668;2023-06-26T04:46:39;2.53;;;0.55;;
42432;SDS011;28071;48.232;20.668;2023-06-26T04:51:42;1.75;;;0.93;;
42432;SDS011;28071;48.232;20.668;2023-06-26T04:56:43;2.67;;;1.45;;
42432;SDS011;28071;48.232;20.668;2023-06-26T05:01:47;2.67;;;1.47;;
42432;SDS011;28071;48.232;20.668;2023-06-26T05:06:48;3.00;;;1.10;;
42432;SDS011;28071;48.232;20.668;2023-06-26T05:11:48;1.70;;;1.10;;
42432;SDS011;28071;48.232;20.668;2023-06-26T05:16:49;2.05;;;1.40;;
42432;SDS011;28071;48.232;20.668;2023-06-26T05:21:50;2.50;;;1.40;;
42432;SDS011;28071;48.232;20.668;2023-06-26T05:26:52;2.15;;;1.25;;
42432;SDS011;28071;48.232;20.668;2023-06-26T05:31:52;1.52;;;1.23;;
42432;SDS011;28071;48.232;20.668;2023-06-26T05:36:56;1.35;;;0.73;;
42432;SDS011;28071;48.232;20.668;2023-06-26T05:41:59;1.42;;;1.02;;
42432;SDS011;28071;48.232;20.668;2023-06-26T05:46:59;1.10;;;0.90;;
42432;SDS011;28071;48.232;20.668;2023-06-26T05:52:00;2.03;;;0.90;;
42432;SDS011;28071;48.232;20.668;2023-06-26T05:57:01;0.60;;;0.50;;
42432;SDS011;28071;48.232;20.668;2023-06-26T06:02:02;0.95;;;0.65;;
42432;SDS011;28071;48.232;20.668;2023-06-26T06:07:03;1.10;;;0.90;;
42432;SDS011;28071;48.232;20.668;2023-06-26T06:12:04;1.60;;;0.80;;
42432;SDS011;28071;48.232;20.668;2023-06-26T06:17:06;1.75;;;0.77;;
42432;SDS011;28071;48.232;20.668;2023-06-26T06:22:06;1.88;;;1.00;;
42432;SDS011;28071;48.232;20.668;2023-06-26T06:32:07;1.80;;;0.90;;
42432;SDS011;28071;48.232;20.668;2023-06-26T06:37:08;1.10;;;0.87;;
42432;SDS011;28071;48.232;20.668;2023-06-26T06:42:08;8.30;;;1.70;;
42432;SDS011;28071;48.232;20.668;2023-06-26T06:47:08;1.30;;;0.85;;
42432;SDS011;28071;48.232;20.668;2023-06-26T06:52:09;1.10;;;0.80;;
42432;SDS011;28071;48.232;20.668;2023-06-26T06:57:09;1.10;;;0.80;;
42432;SDS011;28071;48.232;20.668;2023-06-26T07:02:10;1.02;;;0.68;;
42432;SDS011;28071;48.232;20.668;2023-06-26T07:07:11;1.88;;;1.25;;
42432;SDS011;28071;48.232;20.668;2023-06-26T07:12:13;3.70;;;1.40;;
42432;SDS011;28071;48.232;20.668;2023-06-26T07:17:14;0.90;;;0.68;;
42432;SDS011;28071;48.232;20.668;2023-06-26T07:22:14;1.52;;;1.00;;
42432;SDS011;28071;48.232;20.668;2023-06-26T07:27:15;1.33;;;1.05;;
42432;SDS011;28071;48.232;20.668;2023-06-26T07:32:16;2.88;;;0.80;;
42432;SDS011;28071;48.232;20.668;2023-06-26T07:37:16;1.73;;;0.93;;
42432;SDS011;28071;48.232;20.668;2023-06-26T07:42:17;0.75;;;0.50;;
42432;SDS011;28071;48.232;20.668;2023-06-26T07:47:17;1.02;;;0.77;;
42432;SDS011;28071;48.232;20.668;2023-06-26T07:52:18;0.65;;;0.65;;
42432;SDS011;28071;48.232;20.668;2023-06-26T07:57:19;1.20;;;0.80;;
42432;SDS011;28071;48.232;20.668;2023-06-26T08:02:19;4.78;;;1.05;;
42432;SDS011;28071;48.232;20.668;2023-06-26T08:12:20;1.05;;;0.80;;
42432;SDS011;28071;48.232;20.668;2023-06-26T08:17:21;1.00;;;0.80;;
42432;SDS011;28071;48.232;20.668;2023-06-26T08:22:21;1.17;;;0.95;;
42432;SDS011;28071;48.232;20.668;2023-06-26T08:27:22;0.70;;;0.57;;
42432;SDS011;28071;48.232;20.668;2023-06-26T08:32:22;1.33;;;1.02;;
42432;SDS011;28071;48.232;20.668;2023-06-26T08:37:23;1.50;;;0.70;;
42432;SDS011;28071;48.232;20.668;2023-06-26T08:42:23;0.95;;;0.75;;
42432;SDS011;28071;48.232;20.668;2023-06-26T08:47:23;0.82;;;0.68;;
42432;SDS011;28071;48.232;20.668;2023-06-26T08:52:28;0.95;;;0.95;;
42432;SDS011;28071;48.232;20.668;2023-06-26T08:57:30;1.23;;;0.65;;
42432;SDS011;28071;48.232;20.668;2023-06-26T09:02:31;1.15;;;0.70;;
42432;SDS011;28071;48.232;20.668;2023-06-26T09:07:32;1.65;;;0.90;;
42432;SDS011;28071;48.232;20.668;2023-06-26T09:12:33;1.23;;;0.88;;
42432;SDS011;28071;48.232;20.668;2023-06-26T09:17:38;1.02;;;0.57;;
42432;SDS011;28071;48.232;20.668;2023-06-26T09:22:43;1.25;;;0.82;;
42432;SDS011;28071;48.232;20.668;2023-06-26T09:27:47;1.05;;;0.60;;
42432;SDS011;28071;48.232;20.668;2023-06-26T09:32:48;0.70;;;0.40;;
42432;SDS011;28071;48.232;20.668;2023-06-26T09:37:50;0.75;;;0.35;;
42432;SDS011;28071;48.232;20.668;2023-06-26T09:42:51;1.40;;;0.75;;
42432;SDS011;28071;48.232;20.668;2023-06-26T09:47:51;1.33;;;1.00;;
42432;SDS011;28071;48.232;20.668;2023-06-26T09:52:52;1.08;;;0.98;;
42432;SDS011;28071;48.232;20.668;2023-06-26T09:57:52;1.40;;;0.90;;
42432;SDS011;28071;48.232;20.668;2023-06-26T10:02:56;1.75;;;0.60;;
42432;SDS011;28071;48.232;20.668;2023-06-26T10:07:57;1.05;;;0.85;;
42432;SDS011;28071;48.232;20.668;2023-06-26T10:13:04;0.90;;;0.70;;
42432;SDS011;28071;48.232;20.668;2023-06-26T10:18:11;0.98;;;0.68;;
42432;SDS011;28071;48.232;20.668;2023-06-26T10:23:14;1.38;;;0.85;;
42432;SDS011;28071;48.232;20.668;2023-06-26T10:28:19;1.17;;;0.70;;
42432;SDS011;28071;48.232;20.668;2023-06-26T10:33:21;0.93;;;0.65;;
42432;SDS011;28071;48.232;20.668;2023-06-26T10:38:22;1.70;;;0.77;;
42432;SDS011;28071;48.232;20.668;2023-06-26T10:43:51;1.45;;;0.75;;
42432;SDS011;28071;48.232;20.668;2023-06-26T10:49:10;1.65;;;1.00;;
42432;SDS011;28071;48.232;20.668;2023-06-26T10:54:13;0.80;;;0.63;;
42432;SDS011;28071;48.232;20.668;2023-06-26T10:59:19;0.60;;;0.50;;
42432;SDS011;28071;48.232;20.668;2023-06-26T11:04:21;0.60;;;0.60;;
42432;SDS011;28071;48.232;20.668;2023-06-26T11:09:36;0.47;;;0.47;;
42432;SDS011;28071;48.232;20.668;2023-06-26T11:14:55;0.38;;;0.30;;
42432;SDS011;28071;48.232;20.668;2023-06-26T11:19:55;0.88;;;0.70;;
42432;SDS011;28071;48.232;20.668;2023-06-26T11:24:59;1.70;;;0.88;;
42432;SDS011;28071;48.232;20.668;2023-06-26T11:29:59;0.73;;;0.60;;
42432;SDS011;28071;48.232;20.668;2023-06-26T11:35:00;0.80;;;0.65;;
42432;SDS011;28071;48.232;20.668;2023-06-26T11:40:22;1.58;;;1.10;;
42432;SDS011;28071;48.232;20.668;2023-06-26T11:45:22;0.75;;;0.65;;
42432;SDS011;28071;48.232;20.668;2023-06-26T11:50:23;0.38;;;0.38;;
42432;SDS011;28071;48.232;20.668;2023-06-26T11:55:24;0.80;;;0.50;;
42432;SDS011;28071;48.232;20.668;2023-06-26T12:00:25;0.85;;;0.60;;
42432;SDS011;28071;48.232;20.668;2023-06-26T12:05:26;0.73;;;0.70;;
42432;SDS011;28071;48.232;20.668;2023-06-26T12:10:26;1.00;;;0.60;;
42432;SDS011;28071;48.232;20.668;2023-06-26T12:15:27;1.02;;;0.77;;
42432;SDS011;28071;48.232;20.668;2023-06-26T12:20:28;1.02;;;0.60;;
42432;SDS011;28071;48.232;20.668;2023-06-26T12:25:32;0.93;;;0.57;;
42432;SDS011;28071;48.232;20.668;2023-06-26T12:30:32;0.52;;;0.50;;
42432;SDS011;28071;48.232;20.668;2023-06-26T12:35:33;1.35;;;0.82;;
42432;SDS011;28071;48.232;20.668;2023-06-26T12:40:34;0.65;;;0.60;;
42432;SDS011;28071;48.232;20.668;2023-06-26T12:45:37;0.65;;;0.40;;
42432;SDS011;28071;48.232;20.668;2023-06-26T12:50:45;0.50;;;0.50;;
42432;SDS011;28071;48.232;20.668;2023-06-26T12:55:46;0.90;;;0.57;;
42432;SDS011;28071;48.232;20.668;2023-06-26T13:00:47;0.60;;;0.52;;
42432;SDS011;28071;48.232;20.668;2023-06-26T13:05:47;0.63;;;0.52;;
42432;SDS011;28071;48.232;20.668;2023-06-26T13:10:47;0.60;;;0.43;;
42432;SDS011;28071;48.232;20.668;2023-06-26T13:15:48;0.90;;;0.80;;
42432;SDS011;28071;48.232;20.668;2023-06-26T13:20:48;0.80;;;0.40;;
42432;SDS011;28071;48.232;20.668;2023-06-26T13:25:49;0.75;;;0.50;;
42432;SDS011;28071;48.232;20.668;2023-06-26T13:30:50;1.58;;;0.73;;
42432;SDS011;28071;48.232;20.668;2023-06-26T13:35:51;0.45;;;0.40;;
42432;SDS011;28071;48.232;20.668;2023-06-26T13:40:52;1.00;;;0.88;;
42432;SDS011;28071;48.232;20.668;2023-06-26T13:45:53;1.42;;;0.93;;
42432;SDS011;28071;48.232;20.668;2023-06-26T13:50:54;0.88;;;0.63;;
42432;SDS011;28071;48.232;20.668;2023-06-26T13:55:56;0.65;;;0.63;;
42432;SDS011;28071;48.232;20.668;2023-06-26T14:00:56;1.42;;;0.70;;
42432;SDS011;28071;48.232;20.668;2023-06-26T14:05:57;0.35;;;0.32;;
42432;SDS011;28071;48.232;20.668;2023-06-26T14:10:58;0.80;;;0.57;;
42432;SDS011;28071;48.232;20.668;2023-06-26T14:15:59;2.08;;;0.50;;
42432;SDS011;28071;48.232;20.668;2023-06-26T14:20:59;0.68;;;0.63;;
42432;SDS011;28071;48.232;20.668;2023-06-26T14:26:00;0.60;;;0.50;;
42432;SDS011;28071;48.232;20.668;2023-06-26T14:31:00;0.40;;;0.40;;
42432;SDS011;28071;48.232;20.668;2023-06-26T14:36:00;0.60;;;0.50;;
42432;SDS011;28071;48.232;20.668;2023-06-26T14:41:01;1.50;;;0.90;;
42432;SDS011;28071;48.232;20.668;2023-06-26T14:46:01;1.77;;;1.10;;
42432;SDS011;28071;48.232;20.668;2023-06-26T14:51:02;1.42;;;0.82;;
42432;SDS011;28071;48.232;20.668;2023-06-26T14:56:02;0.82;;;0.65;;
42432;SDS011;28071;48.232;20.668;2023-06-26T15:01:03;0.52;;;0.47;;
42432;SDS011;28071;48.232;20.668;2023-06-26T15:06:03;0.65;;;0.45;;
42432;SDS011;28071;48.232;20.668;2023-06-26T15:11:04;0.80;;;0.50;;
42432;SDS011;28071;48.232;20.668;2023-06-26T15:16:05;0.75;;;0.50;;
42432;SDS011;28071;48.232;20.668;2023-06-26T15:21:05;1.02;;;0.50;;
42432;SDS011;28071;48.232;20.668;2023-06-26T15:26:06;0.65;;;0.60;;
42432;SDS011;28071;48.232;20.668;2023-06-26T15:31:06;0.55;;;0.55;;
42432;SDS011;28071;48.232;20.668;2023-06-26T15:36:06;0.40;;;0.40;;
42432;SDS011;28071;48.232;20.668;2023-06-26T15:41:07;1.65;;;0.80;;
42432;SDS011;28071;48.232;20.668;2023-06-26T15:46:08;0.57;;;0.52;;
42432;SDS011;28071;48.232;20.668;2023-06-26T15:51:08;0.70;;;0.60;;
42432;SDS011;28071;48.232;20.668;2023-06-26T15:56:12;1.27;;;0.70;;
42432;SDS011;28071;48.232;20.668;2023-06-26T16:01:13;0.60;;;0.60;;
42432;SDS011;28071;48.232;20.668;2023-06-26T16:06:13;0.95;;;0.60;;
42432;SDS011;28071;48.232;20.668;2023-06-26T16:11:14;1.02;;;0.60;;
42432;SDS011;28071;48.232;20.668;2023-06-26T16:16:15;0.55;;;0.50;;
42432;SDS011;28071;48.232;20.668;2023-06-26T16:21:15;0.88;;;0.68;;
42432;SDS011;28071;48.232;20.668;2023-06-26T16:26:16;0.77;;;0.77;;
42432;SDS011;28071;48.232;20.668;2023-06-26T16:31:16;0.93;;;0.60;;
42432;SDS011;28071;48.232;20.668;2023-06-26T16:36:17;0.85;;;0.50;;
42432;SDS011;28071;48.232;20.668;2023-06-26T16:41:17;2.78;;;1.30;;
42432;SDS011;28071;48.232;20.668;2023-06-26T16:46:18;2.65;;;1.15;;
42432;SDS011;28071;48.232;20.668;2023-06-26T16:51:18;1.58;;;0.70;;
42432;SDS011;28071;48.232;20.668;2023-06-26T16:56:19;1.35;;;0.82;;
42432;SDS011;28071;48.232;20.668;2023-06-26T17:01:20;0.55;;;0.38;;
42432;SDS011;28071;48.232;20.668;2023-06-26T17:06:21;1.77;;;0.95;;
42432;SDS011;28071;48.232;20.668;2023-06-26T17:11:21;1.90;;;1.02;;
42432;SDS011;28071;48.232;20.668;2023-06-26T17:16:22;1.50;;;0.60;;
42432;SDS011;28071;48.232;20.668;2023-06-26T17:21:22;1.58;;;0.73;;
42432;SDS011;28071;48.232;20.668;2023-06-26T17:26:22;0.52;;;0.52;;
42432;SDS011;28071;48.232;20.668;2023-06-26T17:31:23;1.48;;;0.85;;
42432;SDS011;28071;48.232;20.668;2023-06-26T17:36:23;2.92;;;1.08;;
42432;SDS011;28071;48.232;20.668;2023-06-26T17:41:24;0.30;;;0.30;;
42432;SDS011;28071;48.232;20.668;2023-06-26T17:46:24;1.42;;;0.88;;
42432;SDS011;28071;48.232;20.668;2023-06-26T17:51:25;2.35;;;1.00;;
42432;SDS011;28071;48.232;20.668;2023-06-26T17:56:25;0.93;;;0.82;;
42432;SDS011;28071;48.232;20.668;2023-06-26T18:01:26;1.13;;;0.80;;
42432;SDS011;28071;48.232;20.668;2023-06-26T18:06:26;1.35;;;0.55;;
42432;SDS011;28071;48.232;20.668;2023-06-26T18:11:26;0.73;;;0.50;;
42432;SDS011;28071;48.232;20.668;2023-06-26T18:16:27;1.02;;;0.35;;
42432;SDS011;28071;48.232;20.668;2023-06-26T18:21:29;1.15;;;0.77;;
42432;SDS011;28071;48.232;20.668;2023-06-26T18:26:29;1.50;;;0.60;;
42432;SDS011;28071;48.232;20.668;2023-06-26T18:31:30;0.70;;;0.40;;
42432;SDS011;28071;48.232;20.668;2023-06-26T18:36:30;1.42;;;0.95;;
42432;SDS011;28071;48.232;20.668;2023-06-26T18:41:31;1.02;;;0.73;;
42432;SDS011;28071;48.232;20.668;2023-06-26T18:46:31;1.85;;;0.60;;
42432;SDS011;28071;48.232;20.668;2023-06-26T18:51:32;0.85;;;0.70;;
42432;SDS011;28071;48.232;20.668;2023-06-26T18:56:33;1.13;;;0.77;;
42432;SDS011;28071;48.232;20.668;2023-06-26T19:01:34;0.88;;;0.65;;
42432;SDS011;28071;48.232;20.668;2023-06-26T19:06:34;1.38;;;0.73;;
42432;SDS011;28071;48.232;20.668;2023-06-26T19:11:35;0.57;;;0.57;;
42432;SDS011;28071;48.232;20.668;2023-06-26T19:16:35;0.55;;;0.40;;
42432;SDS011;28071;48.232;20.668;2023-06-26T19:21:36;1.33;;;1.15;;
42432;SDS011;28071;48.232;20.668;2023-06-26T19:26:36;0.57;;;0.57;;
42432;SDS011;28071;48.232;20.668;2023-06-26T19:31:37;0.93;;;0.40;;
42432;SDS011;28071;48.232;20.668;2023-06-26T19:36:37;1.17;;;0.70;;
42432;SDS011;28071;48.232;20.668;2023-06-26T19:41:38;1.45;;;0.68;;
42432;SDS011;28071;48.232;20.668;2023-06-26T19:46:38;0.60;;;0.50;;
42432;SDS011;28071;48.232;20.668;2023-06-26T19:51:38;0.85;;;0.57;;
42432;SDS011;28071;48.232;20.668;2023-06-26T19:56:39;2.08;;;0.90;;
42432;SDS011;28071;48.232;20.668;2023-06-26T20:01:40;1.65;;;1.08;;
42432;SDS011;28071;48.232;20.668;2023-06-26T20:06:42;0.55;;;0.52;;
42432;SDS011;28071;48.232;20.668;2023-06-26T20:11:43;0.98;;;0.82;;
42432;SDS011;28071;48.232;20.668;2023-06-26T20:16:43;0.88;;;0.50;;
42432;SDS011;28071;48.232;20.668;2023-06-26T20:21:44;0.80;;;0.60;;
42432;SDS011;28071;48.232;20.668;2023-06-26T20:26:45;1.25;;;0.70;;
42432;SDS011;28071;48.232;20.668;2023-06-26T20:31:46;0.70;;;0.68;;
42432;SDS011;28071;48.232;20.668;2023-06-26T20:36:46;1.00;;;0.85;;
42432;SDS011;28071;48.232;20.668;2023-06-26T20:41:47;1.17;;;1.02;;
42432;SDS011;28071;48.232;20.668;2023-06-26T20:46:47;0.60;;;0.60;;
42432;SDS011;28071;48.232;20.668;2023-06-26T20:51:55;1.50;;;0.85;;
42432;SDS011;28071;48.232;20.668;2023-06-26T20:57:00;1.27;;;0.77;;
42432;SDS011;28071;48.232;20.668;2023-06-26T21:02:01;0.60;;;0.60;;
42432;SDS011;28071;48.232;20.668;2023-06-26T21:07:01;1.30;;;0.93;;
42432;SDS011;28071;48.232;20.668;2023-06-26T21:12:02;3.85;;;1.23;;
42432;SDS011;28071;48.232;20.668;2023-06-26T21:17:03;2.95;;;0.98;;
42432;SDS011;28071;48.232;20.668;2023-06-26T21:22:04;1.42;;;0.77;;
42432;SDS011;28071;48.232;20.668;2023-06-26T21:27:04;1.65;;;0.63;;
42432;SDS011;28071;48.232;20.668;2023-06-26T21:32:05;1.45;;;0.70;;
42432;SDS011;28071;48.232;20.668;2023-06-26T21:37:06;2.50;;;1.10;;
42432;SDS011;28071;48.232;20.668;2023-06-26T21:42:08;1.77;;;0.95;;
42432;SDS011;28071;48.232;20.668;2023-06-26T21:47:08;1.30;;;0.55;;
42432;SDS011;28071;48.232;20.668;2023-06-26T21:52:09;2.28;;;0.68;;
42432;SDS011;28071;48.232;20.668;2023-06-26T21:57:11;1.40;;;0.80;;
42432;SDS011;28071;48.232;20.668;2023-06-26T22:02:11;0.43;;;0.43;;
42432;SDS011;28071;48.232;20.668;2023-06-26T22:07:12;1.25;;;1.00;;
42432;SDS011;28071;48.232;20.668;2023-06-26T22:12:12;1.05;;;0.52;;
42432;SDS011;28071;48.232;20.668;2023-06-26T22:17:13;2.90;;;0.77;;
42432;SDS011;28071;48.232;20.668;2023-06-26T22:22:13;1.63;;;1.20;;
42432;SDS011;28071;48.232;20.668;2023-06-26T22:27:14;0.82;;;0.80;;
42432;SDS011;28071;48.232;20.668;2023-06-26T22:32:14;2.13;;;1.15;;
42432;SDS011;28071;48.232;20.668;2023-06-26T22:37:16;1.85;;;1.67;;
42432;SDS011;28071;48.232;20.668;2023-06-26T22:42:16;2.60;;;1.52;;
42432;SDS011;28071;48.232;20.668;2023-06-26T22:47:17;4.00;;;2.10;;
42432;SDS011;28071;48.232;20.668;2023-06-26T22:52:17;3.10;;;2.17;;
42432;SDS011;28071;48.232;20.668;2023-06-26T22:57:18;1.80;;;1.58;;
42432;SDS011;28071;48.232;20.668;2023-06-26T23:02:19;2.75;;;1.55;;
42432;SDS011;28071;48.232;20.668;2023-06-26T23:07:20;4.90;;;2.67;;
42432;SDS011;28071;48.232;20.668;2023-06-26T23:12:20;3.72;;;1.80;;
42432;SDS011;28071;48.232;20.668;2023-06-26T23:17:21;4.47;;;2.42;;
42432;SDS011;28071;48.232;20.668;2023-06-26T23:22:21;2.58;;;2.08;;
42432;SDS011;28071;48.232;20.668;2023-06-26T23:27:22;3.47;;;1.52;;
42432;SDS011;28071;48.232;20.668;2023-06-26T23:32:22;0.98;;;0.93;;
42432;SDS011;28071;48.232;20.668;2023-06-26T23:37:23;3.22;;;1.10;;
42432;SDS011;28071;48.232;20.668;2023-06-26T23:42:26;2.90;;;1.27;;
42432;SDS011;28071;48.232;20.668;2023-06-26T23:47:27;1.80;;;1.25;;
42432;SDS011;28071;48.232;20.668;2023-06-26T23:52:27;3.15;;;2.33;;
42432;SDS011;28071;48.232;20.668;2023-06-26T23:57:28;1.70;;;1.45;;
